createdAt,value
2018-01-14T00:01:31.647Z,29.70
2018-01-14T00:06:34.252Z,30.00
2018-01-14T00:11:37.874Z,30.00
2018-01-14T00:16:41.498Z,30.60
2018-01-14T00:21:44.047Z,30.00
2018-01-14T00:26:46.592Z,30.30
2018-01-14T00:31:49.468Z,30.40
2018-01-14T00:36:52.245Z,30.40
2018-01-14T00:41:55.687Z,30.50
2018-01-14T00:46:59.691Z,30.60
2018-01-14T00:52:03.455Z,30.50
2018-01-14T00:57:06.647Z,30.60
2018-01-14T01:02:09.948Z,30.60
2018-01-14T01:07:12.532Z,30.70
2018-01-14T01:12:15.181Z,30.70
2018-01-14T01:17:18.108Z,30.60
2018-01-14T01:22:20.647Z,30.70
2018-01-14T01:27:23.353Z,30.70
2018-01-14T01:32:26.920Z,30.80
2018-01-14T01:37:29.465Z,31.30
2018-01-14T01:42:33.855Z,31.10
2018-01-14T01:47:37.144Z,31.60
2018-01-14T01:52:40.043Z,31.30
2018-01-14T01:57:42.744Z,31.20
2018-01-14T02:02:45.473Z,31.00
2018-01-14T02:07:48.299Z,31.00
2018-01-14T02:12:51.265Z,30.90
2018-01-14T02:17:53.792Z,31.10
2018-01-14T02:22:57.113Z,31.40
2018-01-14T02:27:59.849Z,31.40
2018-01-14T02:33:02.350Z,31.30
2018-01-14T02:38:05.669Z,31.50
2018-01-14T02:43:09.061Z,31.30
2018-01-14T02:48:12.253Z,31.30
2018-01-14T02:53:14.806Z,31.30
2018-01-14T02:58:17.350Z,31.20
2018-01-14T03:03:19.957Z,31.40
2018-01-14T03:08:22.537Z,31.40
2018-01-14T03:13:26.059Z,31.40
2018-01-14T03:18:29.209Z,31.50
2018-01-14T03:23:32.657Z,31.40
2018-01-14T03:28:36.476Z,31.10
2018-01-14T03:33:39.314Z,31.10
2018-01-14T03:38:41.880Z,31.20
2018-01-14T03:43:45.188Z,30.80
2018-01-14T03:48:48.495Z,30.80
2018-01-14T03:53:51.296Z,30.70
2018-01-14T03:58:54.715Z,30.70
2018-01-14T04:03:58.054Z,30.60
2018-01-14T04:09:00.642Z,30.60
2018-01-14T04:14:03.632Z,30.70
2018-01-14T04:19:06.233Z,30.60
2018-01-14T04:24:09.853Z,30.70
2018-01-14T04:29:12.538Z,30.60
2018-01-14T04:34:15.087Z,30.80
2018-01-14T04:39:17.645Z,30.80
2018-01-14T04:44:20.295Z,31.00
2018-01-14T04:49:22.915Z,30.90
2018-01-14T04:54:27.054Z,31.30
2018-01-14T04:59:30.428Z,30.80
2018-01-14T05:04:33.062Z,30.80
2018-01-14T05:09:35.737Z,30.70
2018-01-14T05:14:38.453Z,30.70
2018-01-14T05:19:41.388Z,30.40
2018-01-14T05:24:44.655Z,30.40
2018-01-14T05:29:47.191Z,30.50
2018-01-14T05:34:50.311Z,30.30
2018-01-14T05:39:53.566Z,30.40
2018-01-14T05:44:56.878Z,30.50
2018-01-14T05:50:00.127Z,30.50
2018-01-14T05:55:03.676Z,31.00
2018-01-14T06:00:06.886Z,30.40
2018-01-14T06:05:09.405Z,30.30
2018-01-14T06:10:11.965Z,30.30
2018-01-14T06:15:15.106Z,30.60
2018-01-14T06:20:18.621Z,30.30
2018-01-14T06:25:21.152Z,30.30
2018-01-14T06:30:23.977Z,30.10
2018-01-14T06:35:26.547Z,30.00
2018-01-14T06:40:29.858Z,30.10
2018-01-14T06:45:32.402Z,30.10
2018-01-14T06:50:34.922Z,30.00
2018-01-14T06:55:38.275Z,30.10
2018-01-14T07:00:40.839Z,30.00
2018-01-14T07:05:43.706Z,30.00
2018-01-14T07:10:46.275Z,30.00
2018-01-14T07:15:49.042Z,29.90
2018-01-14T07:20:51.939Z,29.70
2018-01-14T07:25:55.247Z,29.90
2018-01-14T07:30:58.696Z,29.70
2018-01-14T07:36:02.385Z,29.60
2018-01-14T07:41:05.020Z,29.60
2018-01-14T07:46:08.924Z,29.80
2018-01-14T07:51:11.438Z,29.70
2018-01-14T07:56:15.296Z,29.90
2018-01-14T08:01:18.218Z,29.70
2018-01-14T08:06:22.198Z,30.00
2018-01-14T08:11:24.846Z,29.70
2018-01-14T08:16:27.670Z,30.00
2018-01-14T08:21:30.475Z,30.00
2018-01-14T08:26:33.294Z,30.00
2018-01-14T08:31:35.859Z,29.90
2018-01-14T08:36:38.888Z,30.20
2018-01-14T08:41:41.746Z,30.20
2018-01-14T08:46:45.073Z,29.90
2018-01-14T08:51:47.622Z,29.90
2018-01-14T08:56:50.487Z,30.10
2018-01-14T09:01:53.066Z,30.20
2018-01-14T09:06:56.486Z,30.10
2018-01-14T09:12:00.297Z,30.00
2018-01-14T09:17:02.894Z,30.00
2018-01-14T09:22:06.299Z,30.00
2018-01-14T09:27:09.002Z,30.00
2018-01-14T09:32:11.538Z,30.00
2018-01-14T09:37:14.328Z,30.10
2018-01-14T09:42:16.864Z,30.00
2018-01-14T09:47:19.484Z,30.00
2018-01-14T09:52:22.806Z,29.90
2018-01-14T09:57:25.904Z,29.90
2018-01-14T10:02:28.481Z,29.80
2018-01-14T10:07:31.106Z,29.70
2018-01-14T10:12:34.413Z,29.70
2018-01-14T10:17:38.922Z,29.60
2018-01-14T10:22:41.858Z,29.60
2018-01-14T10:27:44.766Z,29.60
2018-01-14T10:32:47.468Z,29.50
2018-01-14T10:37:50.678Z,29.30
2018-01-14T10:42:53.380Z,29.40
2018-01-14T10:47:56.809Z,29.30
2018-01-14T10:52:59.698Z,29.50
2018-01-14T10:58:02.317Z,29.40
2018-01-14T11:03:04.923Z,29.40
2018-01-14T11:08:07.507Z,29.50
2018-01-14T11:13:10.262Z,29.40
2018-01-14T11:18:14.300Z,29.50
2018-01-14T11:23:16.931Z,29.40
2018-01-14T11:28:19.803Z,29.40
2018-01-14T11:33:22.345Z,29.40
2018-01-14T11:38:24.910Z,29.30
2018-01-14T11:43:27.694Z,29.10
2018-01-14T11:48:30.451Z,28.80
2018-01-14T11:53:33.060Z,28.70
2018-01-14T11:58:36.549Z,28.80
2018-01-14T12:03:39.327Z,28.30
2018-01-14T12:08:42.062Z,28.00
2018-01-14T12:13:45.304Z,27.60
2018-01-14T12:18:48.715Z,27.20
2018-01-14T12:23:51.324Z,27.20
2018-01-14T12:28:53.859Z,27.10
2018-01-14T12:39:42.305Z,26.80
2018-01-14T12:44:45.046Z,26.00
2018-01-14T12:49:47.806Z,25.60
2018-01-14T12:54:51.048Z,25.10
2018-01-14T12:59:53.725Z,24.70
2018-01-14T13:04:56.392Z,24.30
2018-01-14T13:09:59.061Z,24.50
2018-01-14T13:15:01.942Z,24.50
2018-01-14T13:20:05.126Z,24.50
2018-01-14T13:25:07.704Z,24.40
2018-01-14T13:30:11.555Z,24.50
2018-01-14T13:35:14.346Z,24.60
2018-01-14T13:40:16.925Z,24.40
2018-01-14T13:45:20.260Z,24.40
2018-01-14T13:50:22.884Z,24.80
2018-01-14T13:55:25.969Z,24.70
2018-01-14T14:00:29.911Z,24.90
2018-01-14T14:05:32.481Z,25.10
2018-01-14T14:10:35.465Z,25.20
2018-01-14T14:15:38.818Z,25.60
2018-01-14T14:20:41.430Z,25.50
2018-01-14T14:25:44.014Z,25.30
2018-01-14T14:30:47.479Z,25.10
2018-01-14T14:35:50.218Z,25.20
2018-01-14T14:40:53.087Z,25.40
2018-01-14T14:45:55.784Z,25.40
2018-01-14T14:50:59.394Z,25.40
2018-01-14T14:56:02.491Z,25.40
2018-01-14T15:01:05.356Z,25.30
2018-01-14T15:06:08.255Z,25.20
2018-01-14T15:11:11.391Z,25.80
2018-01-14T15:16:14.210Z,25.30
2018-01-14T15:21:17.171Z,25.30
2018-01-14T15:26:20.316Z,25.30
2018-01-14T15:31:23.686Z,18.70
2018-01-14T15:36:26.270Z,18.70
2018-01-14T15:41:29.728Z,18.90
2018-01-14T15:46:32.365Z,19.60
2018-01-14T15:51:35.661Z,20.60
2018-01-14T15:56:38.987Z,21.00
2018-01-14T16:01:42.278Z,20.90
2018-01-14T16:06:45.121Z,21.00
2018-01-14T16:11:47.716Z,21.00
2018-01-14T16:16:50.313Z,21.50
2018-01-14T16:21:52.895Z,21.70
2018-01-14T16:26:55.536Z,21.80
2018-01-14T16:31:58.126Z,21.90
2018-01-14T16:37:01.370Z,22.00
2018-01-14T16:42:04.733Z,22.30
2018-01-14T16:47:07.287Z,22.30
2018-01-14T16:52:10.698Z,22.60
2018-01-14T16:57:14.066Z,22.60
2018-01-14T17:02:18.480Z,22.70
2018-01-14T17:07:21.126Z,22.90
2018-01-14T17:12:23.697Z,23.00
2018-01-14T17:17:26.958Z,23.10
2018-01-14T17:22:30.280Z,23.20
2018-01-14T17:27:33.150Z,23.20
2018-01-14T17:32:36.497Z,23.30
2018-01-14T17:37:39.120Z,23.30
2018-01-14T17:42:42.005Z,23.40
2018-01-14T17:47:45.488Z,23.70
2018-01-14T17:52:49.410Z,23.70
2018-01-14T17:57:53.624Z,23.80
2018-01-14T18:02:56.162Z,23.70
2018-01-14T18:07:59.511Z,23.80
2018-01-14T18:13:02.585Z,23.90
2018-01-14T18:18:05.349Z,23.90
2018-01-14T18:23:08.007Z,24.00
2018-01-14T18:28:11.175Z,27.40
2018-01-14T18:33:13.948Z,27.90
2018-01-14T18:38:17.286Z,27.90
2018-01-14T18:43:20.720Z,28.50
2018-01-14T18:48:23.711Z,28.40
2018-01-14T18:53:26.330Z,28.40
2018-01-14T18:58:29.713Z,28.50
2018-01-14T19:03:32.311Z,28.50
2018-01-14T19:08:34.980Z,28.40
2018-01-14T19:13:38.646Z,28.70
2018-01-14T19:18:41.668Z,28.70
2018-01-14T19:23:44.333Z,29.20
2018-01-14T19:28:48.575Z,29.00
2018-01-14T19:33:52.277Z,29.00
2018-01-14T19:38:55.772Z,29.10
2018-01-14T19:43:59.227Z,29.10
2018-01-14T19:49:02.590Z,29.20
2018-01-14T19:54:06.066Z,29.10
2018-01-14T19:59:10.807Z,29.20
2018-01-14T20:04:13.307Z,29.10
2018-01-14T20:09:15.834Z,29.30
2018-01-14T20:14:18.397Z,29.30
2018-01-14T20:19:20.911Z,29.30
2018-01-14T20:24:23.423Z,29.10
2018-01-14T20:29:25.977Z,29.30
2018-01-14T20:34:28.955Z,29.80
2018-01-14T20:39:31.903Z,29.90
2018-01-14T20:44:34.478Z,30.20
2018-01-14T20:49:37.492Z,30.60
2018-01-14T20:54:41.391Z,31.70
2018-01-14T20:59:43.957Z,31.70
2018-01-14T21:04:46.530Z,31.80
2018-01-14T21:09:49.251Z,32.10
2018-01-14T21:14:52.399Z,32.70
2018-01-14T21:19:55.703Z,32.70
2018-01-14T21:24:58.297Z,32.60
2018-01-14T21:30:01.033Z,32.90
2018-01-14T21:35:03.782Z,33.20
2018-01-14T21:40:06.679Z,33.30
2018-01-14T21:45:09.955Z,34.00
2018-01-14T21:50:13.452Z,33.90
2018-01-14T21:55:19.371Z,34.00
2018-01-14T22:00:23.247Z,34.80
2018-01-14T22:05:26.117Z,34.20
2018-01-14T22:10:29.465Z,34.50
2018-01-14T22:15:33.237Z,34.80
2018-01-14T22:20:36.550Z,34.90
2018-01-14T22:25:39.818Z,34.90
2018-01-14T22:30:42.478Z,34.80
2018-01-14T22:35:45.135Z,33.80
2018-01-14T22:40:49.352Z,33.40
2018-01-14T22:45:52.028Z,33.90
2018-01-14T22:50:54.597Z,34.10
2018-01-14T22:55:57.144Z,34.10
2018-01-14T23:00:59.724Z,34.20
2018-01-14T23:06:02.295Z,34.00
2018-01-14T23:11:04.883Z,34.00
2018-01-14T23:16:07.488Z,34.20
2018-01-14T23:21:10.096Z,34.10
2018-01-14T23:26:12.715Z,34.20
2018-01-14T23:31:15.396Z,34.20
2018-01-14T23:36:18.335Z,34.40
2018-01-14T23:41:21.063Z,34.50
2018-01-14T23:46:23.601Z,34.50
2018-01-14T23:51:26.104Z,34.40
2018-01-14T23:56:28.609Z,34.60
